Time;durP1;ratioP1;P1;durP2;ratioP2;P2;SDS_P1;SDS_P2;PMS_P1;PMS_P2;Temp;Humidity;BMP_temperature;BMP_pressure;BME280_temperature;BME280_humidity;BME280_pressure;Samples;Min_cycle;Max_cycle;Signal;HPM_P1;HPM_P2
2023/10/16 00:02:43;;;;;;;14.70;3.30;;;;;;;10.63;57.14;98868.81;135894;1273;24186;-64
2023/10/16 00:05:49;;;;;;;;;;;;;;;10.61;57.43;98874.06;135970;1273;25372;-59
2023/10/16 00:08:53;;;;;;;16.10;4.50;;;;;;;10.44;58.01;98874.87;135949;1273;22595;-60
2023/10/16 00:11:55;;;;;;;15.80;3.00;;;;;;;10.42;58.57;98877.10;135918;1273;25405;-62
2023/10/16 00:14:59;;;;;;;14.40;3.30;;;;;;;10.63;57.90;98879.34;135929;1273;22556;-66
2023/10/16 00:18:09;;;;;;;15.00;2.90;;;;;;;10.58;58.12;98872.85;135940;1273;22527;-64
2023/10/16 00:21:13;;;;;;;10.40;2.60;;;;;;;10.58;58.34;98872.13;135893;1273;25414;-62
2023/10/16 00:24:16;;;;;;;17.60;3.30;;;;;;;10.76;58.09;98880.84;135889;1273;23508;-63
2023/10/16 00:27:19;;;;;;;16.50;3.20;;;;;;;10.94;57.53;98877.66;135856;1273;22645;-63
2023/10/16 00:30:21;;;;;;;13.70;3.00;;;;;;;11.02;57.36;98877.14;135952;1273;22520;-64
2023/10/16 00:33:25;;;;;;;16.50;3.50;;;;;;;11.11;57.60;98876.04;135910;1273;22524;-58
2023/10/16 00:36:27;;;;;;;16.80;3.30;;;;;;;11.30;56.92;98881.21;135958;1273;22534;-63
2023/10/16 00:39:30;;;;;;;16.50;3.20;;;;;;;11.36;56.74;98881.52;135967;1273;22513;-64
2023/10/16 00:42:32;;;;;;;15.80;3.50;;;;;;;11.42;56.66;98878.48;135974;1273;22572;-61
2023/10/16 00:45:36;;;;;;;;;;;;;;;11.55;56.34;98883.11;135914;1273;22526;-63
2023/10/16 00:48:39;;;;;;;16.10;3.10;;;;;;;11.62;56.04;98881.79;135947;1273;25487;-61
2023/10/16 00:51:41;;;;;;;18.30;3.40;;;;;;;11.53;56.68;98883.58;135943;1273;25494;-64
2023/10/16 00:54:44;;;;;;;11.60;2.90;;;;;;;11.58;56.39;98881.48;135933;1273;22550;-63
2023/10/16 00:57:46;;;;;;;15.10;3.40;;;;;;;11.59;56.30;98884.80;135960;1273;22533;-59
2023/10/16 01:00:48;;;;;;;14.10;3.50;;;;;;;11.49;56.81;98883.12;135922;1273;22633;-59
2023/10/16 01:03:56;;;;;;;16.80;3.40;;;;;;;11.52;56.97;98881.71;135896;1273;22527;-62
2023/10/16 01:07:00;;;;;;;13.70;2.80;;;;;;;11.61;56.76;98881.84;135924;1273;22527;-63
2023/10/16 01:10:10;;;;;;;14.60;3.00;;;;;;;11.74;56.49;98881.58;135836;1273;22570;-63
2023/10/16 01:13:13;;;;;;;16.40;3.70;;;;;;;11.67;56.57;98885.50;135890;1264;22558;-58
2023/10/16 01:16:16;;;;;;;10.30;2.90;;;;;;;11.66;56.73;98882.42;135914;1273;22708;-60
2023/10/16 01:19:20;;;;;;;12.40;3.10;;;;;;;11.72;56.59;98888.65;135899;1273;22550;-62
2023/10/16 01:22:26;;;;;;;15.90;3.20;;;;;;;11.69;56.61;98891.17;135887;1273;22584;-64
2023/10/16 01:25:32;;;;;;;11.80;2.90;;;;;;;11.76;56.23;98886.82;135889;1273;25492;-64
2023/10/16 01:28:35;;;;;;;18.20;3.20;;;;;;;11.79;56.52;98891.71;135969;1273;25451;-62
2023/10/16 01:31:37;;;;;;;17.20;3.30;;;;;;;11.91;56.06;98886.77;135912;1273;22531;-63
2023/10/16 01:34:41;;;;;;;;;;;;;;;11.90;56.25;98888.23;135916;1273;22511;-61
2023/10/16 01:37:46;;;;;;;12.10;3.00;;;;;;;11.92;56.28;98881.46;135921;1273;22516;-64
2023/10/16 01:41:02;;;;;;;13.80;2.90;;;;;;;11.92;56.13;98891.06;135921;1273;22534;-63
2023/10/16 01:44:09;;;;;;;16.90;3.20;;;;;;;11.99;56.10;98889.94;135951;1273;22542;-63
2023/10/16 01:47:15;;;;;;;10.70;2.90;;;;;;;12.06;55.70;98893.14;135953;1273;24247;-64
2023/10/16 01:50:27;;;;;;;15.60;3.50;;;;;;;12.24;55.32;98890.59;135919;1273;25576;-63
2023/10/16 01:53:32;;;;;;;14.20;2.90;;;;;;;12.18;55.37;98885.52;135926;1273;22536;-65
2023/10/16 01:56:35;;;;;;;13.80;3.10;;;;;;;12.05;55.52;98882.38;135894;1273;26634;-63
2023/10/16 01:59:39;;;;;;;7.40;2.30;;;;;;;12.07;55.76;98884.48;135883;1273;22548;-65
2023/10/16 02:02:41;;;;;;;16.70;3.40;;;;;;;12.13;55.32;98884.27;135958;1273;22576;-64
2023/10/16 02:05:45;;;;;;;12.50;2.70;;;;;;;12.12;55.54;98880.84;135922;1256;22528;-63
2023/10/16 02:08:48;;;;;;;12.80;3.00;;;;;;;12.18;55.41;98878.84;135928;1273;24207;-64
2023/10/16 02:11:50;;;;;;;17.10;3.40;;;;;;;12.23;55.43;98872.90;135975;1273;22571;-63
2023/10/16 02:14:53;;;;;;;14.90;3.20;;;;;;;12.26;55.29;98877.66;135898;1273;22533;-64
2023/10/16 02:17:56;;;;;;;11.70;2.70;;;;;;;12.14;55.37;98883.86;135940;1273;23878;-64
2023/10/16 02:20:59;;;;;;;13.10;3.10;;;;;;;12.05;55.72;98884.96;135954;1273;22532;-65
2023/10/16 02:24:03;;;;;;;11.80;2.50;;;;;;;12.23;55.29;98892.05;135934;1273;22611;-64
2023/10/16 02:27:10;;;;;;;15.40;3.20;;;;;;;12.36;55.11;98886.64;135954;1273;22598;-65
2023/10/16 02:30:30;;;;;;;12.40;2.70;;;;;;;12.42;54.68;98897.06;135968;1273;25404;-65
2023/10/16 02:33:35;;;;;;;11.70;2.50;;;;;;;12.39;54.78;98906.61;135921;1273;22520;-64
2023/10/16 02:36:37;;;;;;;12.50;2.60;;;;;;;12.33;54.83;98921.38;135915;1273;22528;-64
2023/10/16 02:39:41;;;;;;;11.40;2.80;;;;;;;12.36;54.92;98912.04;135942;1273;22632;-64
2023/10/16 02:42:50;;;;;;;10.90;2.30;;;;;;;12.46;54.88;98904.20;135969;1273;22564;-64
2023/10/16 02:45:53;;;;;;;14.60;2.60;;;;;;;12.46;54.55;98906.62;135910;1273;22523;-64
2023/10/16 02:48:55;;;;;;;10.20;2.60;;;;;;;12.48;54.75;98906.50;135934;1273;22524;-64
2023/10/16 02:51:58;;;;;;;12.70;2.80;;;;;;;12.34;54.97;98904.10;135905;1263;22544;-65
2023/10/16 02:55:00;;;;;;;10.90;2.60;;;;;;;12.37;55.12;98906.86;135864;1273;22581;-64
2023/10/16 02:58:04;;;;;;;;;;;;;;;12.42;54.92;98913.02;135826;1273;22511;-63
2023/10/16 03:01:13;;;;;;;16.40;2.70;;;;;;;12.40;54.66;98913.69;135847;1273;22810;-61
2023/10/16 03:04:16;;;;;;;10.00;2.60;;;;;;;12.57;54.24;98911.88;135987;1273;22524;-63
2023/10/16 03:07:20;;;;;;;11.40;2.70;;;;;;;12.47;54.50;98915.13;135912;1273;22642;-63
2023/10/16 03:10:24;;;;;;;14.00;2.50;;;;;;;12.48;54.47;98919.65;135908;1257;24381;-64
2023/10/16 03:13:27;;;;;;;12.20;2.70;;;;;;;12.44;54.76;98930.83;135887;1273;24357;-60
2023/10/16 03:16:29;;;;;;;7.70;2.20;;;;;;;12.29;54.88;98934.80;135873;1273;22530;-59
2023/10/16 03:19:32;;;;;;;15.20;2.40;;;;;;;12.37;54.82;98932.27;135939;1273;23083;-64
2023/10/16 03:22:35;;;;;;;11.60;2.50;;;;;;;12.39;54.65;98939.55;135899;1273;22782;-63
2023/10/16 03:25:51;;;;;;;10.60;2.20;;;;;;;12.38;54.60;98944.55;135921;1273;22535;-62
2023/10/16 03:28:54;;;;;;;11.40;2.40;;;;;;;12.38;54.83;98940.30;135956;1273;22523;-62
2023/10/16 03:31:56;;;;;;;14.60;2.70;;;;;;;12.35;54.93;98947.39;135955;1273;22594;-63
2023/10/16 03:34:59;;;;;;;;;;;;;;;12.31;54.93;98954.80;135957;1254;22502;-64
2023/10/16 03:38:10;;;;;;;10.50;2.70;;;;;;;12.31;55.26;98955.70;135911;1273;22547;-62
2023/10/16 03:41:27;;;;;;;14.20;2.80;;;;;;;12.35;55.22;98952.79;135937;1273;22531;-60
2023/10/16 03:44:30;;;;;;;17.00;3.00;;;;;;;12.35;55.18;98960.89;135931;1273;22543;-61
2023/10/16 03:47:33;;;;;;;10.20;2.40;;;;;;;12.28;55.21;98961.30;135958;1273;26070;-62
2023/10/16 03:50:35;;;;;;;12.80;2.50;;;;;;;12.23;55.60;98961.85;135936;1273;25242;-64
2023/10/16 03:53:37;;;;;;;9.60;3.00;;;;;;;12.20;55.80;98960.98;135898;1254;24356;-64
2023/10/16 03:56:40;;;;;;;14.20;2.90;;;;;;;12.20;55.51;98958.88;135907;1273;22572;-62
2023/10/16 03:59:44;;;;;;;15.10;2.60;;;;;;;12.24;55.68;98961.03;135908;1273;22633;-63
2023/10/16 04:02:47;;;;;;;14.70;2.70;;;;;;;12.37;55.10;98962.30;135980;1254;22576;-65
2023/10/16 04:05:49;;;;;;;9.90;2.60;;;;;;;12.35;55.31;98964.03;135890;1273;22558;-62
2023/10/16 04:08:52;;;;;;;15.60;2.80;;;;;;;12.41;54.99;98957.84;135945;1273;22513;-63
2023/10/16 04:11:55;;;;;;;14.40;2.40;;;;;;;12.46;55.17;98954.71;135889;1273;22531;-63
2023/10/16 04:15:04;;;;;;;18.80;2.80;;;;;;;12.55;54.96;98958.67;135880;1273;22678;-63
2023/10/16 04:18:17;;;;;;;10.30;2.30;;;;;;;12.42;55.45;98958.98;135902;1273;22572;-59
2023/10/16 04:21:40;;;;;;;17.00;2.80;;;;;;;12.43;55.62;98959.41;135881;1273;22661;-62
2023/10/16 04:24:45;;;;;;;14.00;3.00;;;;;;;12.43;55.61;98959.65;135926;1273;22511;-64
2023/10/16 04:27:49;;;;;;;17.40;3.10;;;;;;;12.49;55.37;98960.10;135906;1255;24212;-64
2023/10/16 04:30:52;;;;;;;12.40;2.60;;;;;;;12.49;55.62;98964.81;135932;1273;22524;-62
2023/10/16 04:34:13;;;;;;;12.50;2.60;;;;;;;12.40;55.76;98970.90;135921;1273;22554;-65
2023/10/16 04:47:24;;;;;;;13.90;2.90;;;;;;;12.40;56.22;98959.66;135914;1273;22534;-64
2023/10/16 04:50:31;;;;;;;14.50;2.70;;;;;;;12.36;56.23;98964.48;135858;1273;22561;-65
2023/10/16 04:53:47;;;;;;;14.50;2.90;;;;;;;12.27;56.51;98966.81;135946;1273;24329;-64
2023/10/16 04:57:37;;;;;;;14.30;2.50;;;;;;;12.21;56.96;98969.67;135850;1273;25477;-63
2023/10/16 05:04:14;;;;;;;10.30;2.20;;;;;;;12.28;56.78;98959.02;135868;1273;25481;-64
2023/10/16 05:07:16;;;;;;;14.10;2.80;;;;;;;12.17;56.79;98962.06;135842;1273;25677;-64
2023/10/16 05:10:51;;;;;;;9.90;2.20;;;;;;;12.20;56.36;98964.81;135863;1273;22632;-61
2023/10/16 05:13:55;;;;;;;13.90;2.40;;;;;;;12.23;56.20;98964.58;135837;1273;22660;-63
2023/10/16 05:17:21;;;;;;;12.00;2.40;;;;;;;12.45;55.81;98961.61;135924;1273;22576;-60
2023/10/16 05:21:05;;;;;;;11.60;2.30;;;;;;;12.46;55.25;98963.84;135957;1273;25478;-58
2023/10/16 06:14:13;;;;;;;16.60;2.90;;;;;;;12.82;54.20;99025.65;135867;1267;22550;-62
2023/10/16 06:17:16;;;;;;;10.10;2.60;;;;;;;12.76;53.74;99034.63;135890;1273;22527;-63
2023/10/16 06:20:21;;;;;;;14.60;3.30;;;;;;;12.86;53.61;99033.64;135876;1273;22526;-61
2023/10/16 06:23:28;;;;;;;12.60;2.70;;;;;;;12.71;53.91;99046.52;135896;1273;22530;-61
2023/10/16 06:26:31;;;;;;;14.10;3.60;;;;;;;12.58;53.98;99052.31;135924;1273;22804;-60
2023/10/16 06:29:35;;;;;;;13.80;2.70;;;;;;;12.53;54.30;99044.07;135967;1273;24260;-63
2023/10/16 06:32:37;;;;;;;14.70;2.90;;;;;;;12.56;54.35;99050.69;135920;1273;22531;-62
2023/10/16 06:35:41;;;;;;;10.20;2.70;;;;;;;12.55;54.40;99049.31;135927;1273;22988;-62
2023/10/16 06:38:44;;;;;;;12.80;2.80;;;;;;;12.69;54.09;99048.05;135933;1273;26766;-61
2023/10/16 06:41:47;;;;;;;16.20;2.90;;;;;;;12.65;53.61;99056.73;135971;1273;22558;-61
2023/10/16 06:44:53;;;;;;;12.60;3.10;;;;;;;12.64;54.09;99053.98;135931;1273;22546;-62
2023/10/16 06:47:58;;;;;;;16.20;2.90;;;;;;;12.76;53.57;99053.39;135933;1273;22550;-64
2023/10/16 06:51:03;;;;;;;12.70;2.80;;;;;;;12.77;54.03;99054.07;135897;1272;22554;-64
2023/10/16 06:54:09;;;;;;;10.20;3.00;;;;;;;12.77;53.15;99065.27;135933;1273;22740;-64
2023/10/16 06:57:12;;;;;;;18.00;3.50;;;;;;;12.70;53.36;99064.48;135909;1273;22520;-62
2023/10/16 07:00:22;;;;;;;12.40;2.70;;;;;;;12.64;52.98;99071.38;135905;1273;22538;-60
2023/10/16 07:03:28;;;;;;;11.80;2.90;;;;;;;12.74;53.10;99067.89;135867;1273;22625;-64
2023/10/16 07:06:33;;;;;;;12.40;2.80;;;;;;;12.73;52.76;99072.92;135892;1273;22551;-64
2023/10/16 07:09:37;;;;;;;12.70;2.70;;;;;;;12.65;53.26;99075.02;135919;1273;22715;-64
2023/10/16 07:12:56;;;;;;;16.60;3.50;;;;;;;12.62;53.17;99081.17;135866;1273;22543;-62
2023/10/16 07:15:59;;;;;;;11.50;2.50;;;;;;;12.63;53.40;99080.41;135884;1273;25490;-63
2023/10/16 07:19:03;;;;;;;12.50;2.40;;;;;;;12.68;53.23;99079.23;135899;1273;22546;-63
2023/10/16 07:22:10;;;;;;;12.00;3.00;;;;;;;12.69;53.35;99082.95;135924;1273;22578;-64
2023/10/16 07:25:24;;;;;;;14.00;3.10;;;;;;;12.66;53.40;99083.89;135893;1273;22603;-64
2023/10/16 07:28:27;;;;;;;17.40;2.90;;;;;;;12.56;53.79;99086.80;135907;1254;25467;-63
2023/10/16 07:31:29;;;;;;;8.90;2.40;;;;;;;12.66;53.30;99083.35;135915;1273;22558;-63
2023/10/16 07:34:33;;;;;;;17.70;3.80;;;;;;;12.76;53.02;99083.05;135903;1273;22637;-64
2023/10/16 07:37:35;;;;;;;11.60;2.80;;;;;;;12.79;53.03;99084.05;135901;1273;22549;-62
2023/10/16 07:40:38;;;;;;;;;;;;;;;12.71;53.15;99093.36;135933;1273;26650;-62
2023/10/16 07:43:45;;;;;;;11.20;2.70;;;;;;;12.74;52.37;99093.18;135863;1260;22578;-63
2023/10/16 07:46:50;;;;;;;11.50;2.70;;;;;;;12.72;52.45;99093.11;135932;1273;22708;-63
2023/10/16 07:49:53;;;;;;;10.70;2.70;;;;;;;12.82;52.15;99094.62;135892;1273;25257;-64
2023/10/16 07:52:55;;;;;;;11.50;2.80;;;;;;;12.74;52.07;99100.19;135937;1273;22670;-62
2023/10/16 07:55:58;;;;;;;12.90;2.50;;;;;;;12.78;52.35;99099.98;135950;1273;22526;-63
2023/10/16 07:59:07;;;;;;;12.80;2.90;;;;;;;12.78;52.70;99094.81;135915;1273;22583;-62
2023/10/16 08:02:17;;;;;;;15.10;3.20;;;;;;;12.95;52.67;99094.96;135922;1273;22522;-61
2023/10/16 08:05:20;;;;;;;13.30;3.00;;;;;;;13.03;52.38;99096.35;135958;1273;22548;-63
2023/10/16 08:08:35;;;;;;;15.10;3.40;;;;;;;12.87;52.51;99104.42;135912;1272;22546;-63
2023/10/16 08:11:42;;;;;;;13.90;4.10;;;;;;;12.73;53.17;99105.37;135903;1273;25369;-64
2023/10/16 08:14:44;;;;;;;13.70;2.70;;;;;;;12.81;53.00;99102.02;135910;1273;22527;-64
2023/10/16 08:17:47;;;;;;;16.20;2.90;;;;;;;12.77;53.54;99118.77;135925;1273;22639;-63
2023/10/16 08:21:06;;;;;;;12.20;3.50;;;;;;;12.69;53.39;99126.16;135925;1273;22555;-64
2023/10/16 08:24:08;;;;;;;14.90;3.30;;;;;;;12.73;53.99;99120.80;135943;1273;22531;-64
2023/10/16 08:27:19;;;;;;;14.50;3.40;;;;;;;12.67;54.10;99125.02;135943;1273;22523;-64
2023/10/16 08:30:48;;;;;;;15.80;3.90;;;;;;;12.55;54.91;99119.90;135884;1273;22533;-64
2023/10/16 08:33:51;;;;;;;14.50;3.00;;;;;;;12.35;55.12;99126.73;135901;1273;25389;-63
2023/10/16 08:36:54;;;;;;;17.50;3.80;;;;;;;12.36;55.91;99123.84;135928;1273;22530;-63
2023/10/16 08:39:57;;;;;;;18.90;3.60;;;;;;;12.48;55.59;99124.14;135888;1254;22538;-65
2023/10/16 08:43:03;;;;;;;16.80;3.30;;;;;;;12.58;55.34;99124.58;135910;1273;22534;-65
2023/10/16 08:46:11;;;;;;;15.00;3.80;;;;;;;12.57;55.15;99129.40;135934;1273;22533;-64
2023/10/16 08:49:22;;;;;;;14.40;3.00;;;;;;;12.56;54.60;99138.92;135858;1273;22532;-65
2023/10/16 08:52:33;;;;;;;11.10;2.60;;;;;;;12.59;55.00;99137.67;135895;1273;22530;-64
2023/10/16 08:55:36;;;;;;;13.40;3.70;;;;;;;12.68;54.59;99133.08;135932;1273;25433;-63
2023/10/16 08:58:39;;;;;;;17.40;4.40;;;;;;;12.58;54.64;99138.08;135887;1273;22546;-64
2023/10/16 09:01:41;;;;;;;16.50;3.80;;;;;;;12.63;54.46;99138.82;135887;1256;23131;-62
2023/10/16 09:04:44;;;;;;;17.90;3.70;;;;;;;12.45;54.04;99140.84;135848;1273;22545;-65
2023/10/16 09:07:47;;;;;;;15.70;3.50;;;;;;;12.45;53.97;99143.11;135847;1273;22521;-63
2023/10/16 09:10:50;;;;;;;15.30;3.30;;;;;;;12.57;52.92;99139.70;135927;1273;22540;-62
2023/10/16 09:13:52;;;;;;;20.10;4.00;;;;;;;12.60;53.44;99140.05;135926;1273;22552;-62
2023/10/16 09:16:55;;;;;;;14.50;3.30;;;;;;;12.65;53.85;99139.23;135867;1273;22531;-61
2023/10/16 09:19:58;;;;;;;18.20;3.80;;;;;;;12.77;53.18;99143.70;135879;1273;22534;-64
2023/10/16 09:23:01;;;;;;;13.20;3.20;;;;;;;12.94;52.78;99140.00;135909;1273;22664;-60
2023/10/16 09:26:06;;;;;;;12.40;3.00;;;;;;;12.98;52.31;99141.09;135914;1273;24387;-60
2023/10/16 09:29:14;;;;;;;11.90;2.90;;;;;;;13.12;51.46;99133.85;135914;1273;22540;-62
2023/10/16 09:39:34;;;;;;;15.00;2.90;;;;;;;14.07;50.00;99132.73;135908;1273;22539;-60
2023/10/16 09:43:05;;;;;;;13.50;3.20;;;;;;;13.89;49.59;99137.95;135908;1272;22520;-63
2023/10/16 09:49:42;;;;;;;13.70;3.40;;;;;;;13.64;49.41;99139.52;135853;1273;24275;-62
2023/10/16 09:52:45;;;;;;;11.40;2.70;;;;;;;13.56;49.94;99139.93;135930;1273;24345;-63
2023/10/16 09:55:48;;;;;;;10.30;2.70;;;;;;;13.60;50.18;99136.84;135910;1257;22570;-63
2023/10/16 09:58:51;;;;;;;13.80;2.60;;;;;;;13.75;49.98;99140.56;135881;1273;22527;-63
2023/10/16 10:01:55;;;;;;;;;;;;;;;13.66;50.30;99151.92;135875;1273;22561;-63
2023/10/16 10:04:59;;;;;;;11.70;3.00;;;;;;;13.48;50.17;99156.43;135878;1271;22600;-57
2023/10/16 10:08:02;;;;;;;12.40;3.30;;;;;;;13.54;50.23;99153.95;135861;1273;22537;-61
2023/10/16 10:11:17;;;;;;;12.30;2.80;;;;;;;13.52;49.89;99154.94;135901;1254;22530;-64
2023/10/16 10:14:27;;;;;;;13.20;2.90;;;;;;;13.57;50.48;99148.95;135897;1273;22539;-58
2023/10/16 10:17:29;;;;;;;12.40;2.90;;;;;;;13.49;49.56;99160.01;135891;1273;22571;-63
2023/10/16 10:20:39;;;;;;;;;;;;;;;13.41;49.86;99152.84;135881;1273;22515;-63
2023/10/16 10:23:41;;;;;;;13.60;2.80;;;;;;;13.62;49.52;99154.23;135944;1273;24282;-64
2023/10/16 10:26:44;;;;;;;14.70;3.20;;;;;;;13.70;49.29;99145.81;135952;1273;22572;-61
2023/10/16 10:29:48;;;;;;;14.80;3.00;;;;;;;13.81;48.46;99139.57;135939;1273;22523;-64
2023/10/16 10:32:52;;;;;;;14.30;2.90;;;;;;;13.93;48.43;99139.52;135947;1257;22634;-62
2023/10/16 10:35:55;;;;;;;12.40;2.70;;;;;;;14.26;47.94;99134.71;135861;1273;22546;-65
2023/10/16 10:38:58;;;;;;;13.60;2.70;;;;;;;14.42;45.78;99133.40;135942;1273;22534;-64
2023/10/16 10:42:03;;;;;;;;;;;;;;;14.32;45.76;99134.13;135919;1272;22505;-64
2023/10/16 10:45:18;;;;;;;14.50;2.90;;;;;;;14.48;46.25;99129.45;135875;1273;22560;-61
2023/10/16 10:48:24;;;;;;;11.60;2.50;;;;;;;14.44;45.80;99134.66;135840;1273;25358;-63
2023/10/16 10:51:29;;;;;;;13.40;3.20;;;;;;;14.81;46.47;99129.77;135915;1254;22534;-63
2023/10/16 10:54:33;;;;;;;15.70;3.20;;;;;;;15.26;46.21;99124.41;135894;1273;22531;-65
2023/10/16 10:57:36;;;;;;;15.40;2.60;;;;;;;15.27;43.91;99134.05;135917;1273;22535;-64
2023/10/16 11:00:45;;;;;;;16.80;2.80;;;;;;;14.99;43.96;99137.00;135954;1251;24208;-64
2023/10/16 11:03:52;;;;;;;19.30;3.60;;;;;;;14.82;44.40;99128.59;135918;1263;22513;-63
2023/10/16 11:06:58;;;;;;;14.80;3.70;;;;;;;14.76;44.71;99131.82;135893;1273;22516;-62
2023/10/16 11:10:00;;;;;;;11.90;3.10;;;;;;;14.71;44.76;99131.32;135911;1273;22625;-63
2023/10/16 11:13:03;;;;;;;;;;;;;;;14.47;44.32;99132.19;135936;1273;22535;-63
2023/10/16 11:16:07;;;;;;;16.40;2.50;;;;;;;14.59;44.36;99129.16;135885;1273;22536;-63
2023/10/16 11:19:27;;;;;;;14.80;3.20;;;;;;;14.74;44.11;99131.79;135914;1273;22624;-58
2023/10/16 11:22:34;;;;;;;13.60;2.70;;;;;;;14.81;44.20;99140.61;135844;1273;22516;-63
2023/10/16 11:25:37;;;;;;;16.30;3.00;;;;;;;14.80;44.28;99130.33;135851;1273;22650;-64
2023/10/16 11:28:48;;;;;;;16.10;3.20;;;;;;;14.79;44.51;99136.73;135865;1273;22547;-64
2023/10/16 11:31:52;;;;;;;12.90;2.70;;;;;;;14.83;44.49;99134.01;135856;1273;22531;-64
2023/10/16 11:35:13;;;;;;;13.60;3.30;;;;;;;14.76;44.74;99142.59;135797;1273;22515;-63
2023/10/16 11:38:19;;;;;;;10.60;2.60;;;;;;;14.56;44.45;99142.80;135826;1273;22520;-65
2023/10/16 11:41:24;;;;;;;14.40;2.80;;;;;;;14.35;45.28;99137.20;135876;1257;22531;-59
2023/10/16 11:44:32;;;;;;;14.20;2.30;;;;;;;14.40;45.20;99141.81;135842;1273;22629;-64
2023/10/16 11:47:39;;;;;;;18.10;3.10;;;;;;;14.45;44.94;99138.84;135844;1273;22546;-63
2023/10/16 11:50:44;;;;;;;14.00;2.90;;;;;;;14.45;45.65;99135.27;135814;1273;22637;-62
2023/10/16 11:53:47;;;;;;;10.00;2.50;;;;;;;14.39;44.89;99131.98;135888;1273;22534;-65
2023/10/16 11:56:53;;;;;;;15.70;2.50;;;;;;;14.35;45.27;99130.91;135919;1273;22662;-62
2023/10/16 11:59:55;;;;;;;11.50;2.60;;;;;;;14.41;45.00;99137.13;135886;1258;22541;-61
2023/10/16 12:02:58;;;;;;;10.50;2.50;;;;;;;14.26;43.73;99139.66;135938;1273;22549;-61
2023/10/16 12:06:01;;;;;;;14.40;2.30;;;;;;;14.10;44.24;99142.17;135906;1273;22537;-62
2023/10/16 12:09:04;;;;;;;;;;;;;;;14.12;43.94;99144.98;135848;1273;22522;-64
2023/10/16 12:12:08;;;;;;;16.50;2.80;;;;;;;14.33;44.21;99143.73;135832;1256;22573;-63
2023/10/16 12:15:12;;;;;;;15.70;2.90;;;;;;;14.27;44.45;99144.63;135888;1273;22548;-64
2023/10/16 12:18:15;;;;;;;15.10;3.00;;;;;;;14.26;44.96;99135.03;135871;1273;22632;-61
2023/10/16 12:21:18;;;;;;;14.40;2.70;;;;;;;14.41;45.25;99129.55;135988;1259;25560;-63
2023/10/16 12:24:25;;;;;;;12.70;2.80;;;;;;;14.31;45.11;99129.61;135853;1273;22639;-63
2023/10/16 12:27:29;;;;;;;14.20;3.00;;;;;;;14.69;45.06;99130.42;135865;1273;22517;-63
2023/10/16 12:30:36;;;;;;;16.50;2.90;;;;;;;14.85;43.82;99126.55;135866;1266;22535;-64
2023/10/16 12:33:40;;;;;;;12.60;2.60;;;;;;;14.86;44.45;99122.46;135869;1273;22555;-63
2023/10/16 12:36:49;;;;;;;20.00;3.60;;;;;;;14.88;44.09;99124.77;135895;1273;22734;-58
2023/10/16 12:39:55;;;;;;;15.30;3.20;;;;;;;14.92;44.61;99117.29;135864;1273;24218;-64
2023/10/16 12:42:57;;;;;;;15.40;3.20;;;;;;;14.75;44.10;99124.73;135868;1273;22527;-63
2023/10/16 12:46:00;;;;;;;11.50;2.60;;;;;;;14.60;43.58;99123.10;135868;1273;22523;-63
2023/10/16 12:49:06;;;;;;;18.90;3.30;;;;;;;14.40;43.40;99133.02;135848;1273;22547;-65
2023/10/16 12:55:32;;;;;;;10.90;2.70;;;;;;;14.17;44.53;99123.39;135858;1273;22538;-63
2023/10/16 12:58:47;;;;;;;14.70;2.90;;;;;;;14.34;44.50;99114.79;135919;1273;22530;-64
2023/10/16 13:01:52;;;;;;;14.10;2.70;;;;;;;14.29;43.75;99114.95;135911;1273;22669;-61
2023/10/16 13:04:55;;;;;;;13.10;2.70;;;;;;;14.25;44.54;99112.98;135839;1273;22547;-63
2023/10/16 13:08:01;;;;;;;14.00;2.80;;;;;;;14.34;43.87;99118.45;136037;1273;22520;-62
2023/10/16 13:11:07;;;;;;;17.00;2.60;;;;;;;14.36;43.06;99115.48;135861;1273;22531;-62
2023/10/16 13:14:11;;;;;;;16.90;2.80;;;;;;;14.29;43.23;99116.88;135853;1273;22543;-63
2023/10/16 13:17:14;;;;;;;16.10;3.40;;;;;;;14.33;43.63;99111.89;135837;1269;22650;-62
2023/10/16 13:20:18;;;;;;;;;;;;;;;14.29;42.74;99106.72;135849;1273;22514;-64
2023/10/16 13:23:24;;;;;;;18.10;3.00;;;;;;;14.33;43.30;99107.78;135870;1273;22573;-63
2023/10/16 13:26:31;;;;;;;13.40;2.70;;;;;;;14.36;42.82;99102.33;135879;1273;22988;-63
2023/10/16 13:29:40;;;;;;;15.50;2.90;;;;;;;14.50;42.63;99108.00;135871;1273;22546;-62
2023/10/16 13:32:46;;;;;;;16.50;2.80;;;;;;;14.65;42.42;99108.36;135914;1273;22531;-62
2023/10/16 13:35:50;;;;;;;12.60;2.90;;;;;;;14.72;42.69;99104.48;135854;1273;25423;-62
2023/10/16 13:38:56;;;;;;;12.30;2.20;;;;;;;14.53;43.17;99109.40;135854;1273;24281;-63
2023/10/16 13:41:58;;;;;;;13.10;2.60;;;;;;;14.52;43.51;99103.29;135880;1273;22529;-63
2023/10/16 13:45:11;;;;;;;16.10;2.70;;;;;;;14.46;43.28;99103.22;135879;1273;22520;-63
2023/10/16 13:48:22;;;;;;;13.70;2.90;;;;;;;14.47;43.42;99102.60;135919;1257;22524;-61
2023/10/16 13:51:37;;;;;;;14.30;2.80;;;;;;;14.65;43.69;99100.48;135910;1273;22539;-63
2023/10/16 13:54:41;;;;;;;14.70;2.70;;;;;;;14.46;43.54;99105.34;135835;1273;22556;-63
2023/10/16 13:57:47;;;;;;;;;;;;;;;14.48;43.73;99100.58;135890;1273;22515;-64
2023/10/16 14:00:51;;;;;;;14.70;2.90;;;;;;;14.39;43.90;99097.00;135858;1273;22560;-62
2023/10/16 14:03:58;;;;;;;16.20;3.10;;;;;;;14.29;44.01;99092.30;135867;1264;24206;-63
2023/10/16 14:07:07;;;;;;;15.70;3.30;;;;;;;14.33;44.29;99090.77;135915;1273;22594;-63
2023/10/16 14:10:13;;;;;;;23.30;3.60;;;;;;;14.35;44.68;99090.98;135911;1273;22520;-63
2023/10/16 14:13:19;;;;;;;15.70;2.90;;;;;;;14.37;44.57;99089.60;135988;1273;22532;-64
2023/10/16 14:16:23;;;;;;;15.10;3.00;;;;;;;14.35;43.99;99093.40;135938;1273;22531;-62
2023/10/16 14:19:28;;;;;;;13.30;3.10;;;;;;;14.49;44.29;99088.37;135912;1273;22995;-63
2023/10/16 14:22:32;;;;;;;12.30;2.70;;;;;;;14.37;43.45;99094.68;135882;1273;22523;-62
2023/10/16 14:25:38;;;;;;;13.10;2.80;;;;;;;14.33;43.52;99093.20;135875;1273;22543;-64
2023/10/16 14:28:46;;;;;;;15.10;3.10;;;;;;;14.22;43.38;99094.19;135927;1273;22551;-63
2023/10/16 14:31:52;;;;;;;16.40;2.80;;;;;;;14.29;43.66;99096.83;136084;1273;22531;-62
2023/10/16 14:34:55;;;;;;;13.70;2.70;;;;;;;14.23;43.52;99100.80;135900;1257;22524;-64
2023/10/16 14:38:04;;;;;;;14.30;2.80;;;;;;;14.37;43.40;99100.90;135925;1273;22542;-63
2023/10/16 14:41:15;;;;;;;15.40;3.10;;;;;;;14.43;43.77;99099.73;135904;1273;24297;-60
2023/10/16 14:44:18;;;;;;;17.50;3.50;;;;;;;14.52;43.71;99102.23;135894;1250;22534;-63
2023/10/16 14:47:21;;;;;;;18.70;3.90;;;;;;;14.42;43.54;99105.21;135925;1273;22575;-64
2023/10/16 14:50:32;;;;;;;18.30;3.50;;;;;;;14.46;43.44;99103.77;135900;1273;22643;-64
2023/10/16 14:53:36;;;;;;;17.50;3.20;;;;;;;14.20;43.30;99108.23;135923;1273;22523;-64
2023/10/16 14:56:39;;;;;;;16.40;3.20;;;;;;;14.16;43.01;99109.40;135910;1273;26510;-66
2023/10/16 14:59:42;;;;;;;12.10;2.50;;;;;;;14.26;42.84;99110.46;135917;1273;22566;-66
2023/10/16 15:02:45;;;;;;;11.80;2.40;;;;;;;14.28;42.44;99113.07;135871;1273;22514;-64
2023/10/16 15:05:49;;;;;;;14.80;2.70;;;;;;;14.32;42.88;99110.52;135849;1273;24249;-63
2023/10/16 15:08:56;;;;;;;18.60;3.30;;;;;;;14.36;42.80;99114.30;135896;1273;22532;-64
2023/10/16 15:12:03;;;;;;;13.30;2.40;;;;;;;14.30;42.84;99118.73;135890;1259;24180;-63
2023/10/16 15:15:08;;;;;;;13.10;2.60;;;;;;;14.27;43.21;99114.98;135885;1272;22517;-64
2023/10/16 15:18:11;;;;;;;12.90;2.50;;;;;;;14.27;43.09;99117.88;137361;1273;22169;-64
2023/10/16 15:21:22;;;;;;;12.90;2.60;;;;;;;14.39;43.21;99116.73;136458;1273;22156;-64
2023/10/16 15:24:25;;;;;;;14.20;2.60;;;;;;;14.30;43.10;99121.42;136055;1273;22530;-64
2023/10/16 15:27:30;;;;;;;13.10;3.10;;;;;;;14.14;43.46;99124.31;135903;1273;25524;-63
2023/10/16 15:30:33;;;;;;;14.30;2.70;;;;;;;14.21;43.42;99122.91;135947;1273;22542;-64
2023/10/16 15:33:38;;;;;;;14.70;2.60;;;;;;;14.42;43.36;99126.16;135882;1256;22535;-64
2023/10/16 15:36:41;;;;;;;16.00;3.10;;;;;;;14.50;43.23;99126.64;135907;1273;23881;-64
2023/10/16 15:39:44;;;;;;;20.00;3.50;;;;;;;14.39;43.50;99130.94;136019;1267;22544;-65